• Join FlightAware (Why Join?)
  • Login
  • US Flag 
11:54PM EDT


 

Airport Tracker/Info


-or-


 

Live Flight TrackerFlight Track Log ✈ N53NW ✈ 03-Jul-2013 ✈ KPIT - KSSI

Flight Track Log - Related Links

Times and Time Zones

All times are in EDT time to prevent confusion due to time zone crossing. See the N53NW flight status page for this flight to view local times or setup timezone preferences in your user account.

Time Position Orientation Groundspeed Altitude Reporting Facility
EDT Latitude Longitude Course Direction KTS MPH feet Rate Location/Type
09:04AM 40.3231 -80.2019 180° South 264 304 8,900  Level Cleveland Center
09:05AM 40.2478 -80.2078 183° South 290 334 11,700 2,640 Climbing Cleveland Center
09:06AM 40.1750 -80.2108 182° South 277 319 14,200 2,340 Climbing Cleveland Center
09:07AM 39.9622 -80.2333 180° South  Level FlightAware Approximate
09:07AM 40.0978 -80.2167 183° South 277 319 16,400  Level Cleveland Center
09:08AM 39.8757 -80.2430 187° South  Level FlightAware Approximate
09:08AM 40.0208 -80.2225 183° South 271 312 18,500  Level Cleveland Center
09:09AM 39.7890 -80.2500 180° South  Level FlightAware Approximate
09:09AM 39.9436 -80.2256 182° South 271 312 20,600  Level Cleveland Center
09:10AM 39.8706 -80.2314 184° South 271 312 22,600 1,860 Climbing Cleveland Center
09:11AM 39.7956 -80.2344 182° South 271 312 24,400 1,440 Climbing Cleveland Center
09:13AM 39.6319 -80.2478 184° South 256 295 27,600 1,320 Climbing Washington Center
09:14AM 39.5528 -80.2506 182° South 256 295 29,000 1,320 Climbing Washington Center
09:15AM 39.4756 -80.2539 182° South 263 303 30,300 1,260 Climbing Washington Center
09:16AM 39.4022 -80.2597 184° South 268 308 31,500 1,140 Climbing Washington Center
09:17AM 39.3250 -80.2656 183° South 278 320 32,700 1,080 Climbing Washington Center
09:18AM 39.2497 -80.2689 182° South 278 320 33,800 1,080 Climbing Washington Center
09:19AM 39.1744 -80.2772 185° South 273 314 34,900 600 Climbing Washington Center
09:20AM 39.0925 -80.2908 187° South 279 321 35,000  Climbing Washington Center
09:21AM 39.0044 -80.3039 187° South 301 346 35,000  Level Washington Center
09:22AM 38.9122 -80.3167 186° South 325 374 35,000  Level Washington Center
09:23AM 38.8181 -80.3292 186° South 338 389 35,000  Level Washington Center
09:24AM 38.7294 -80.3500 190° South 349 402 35,000  Level Washington Center
09:25AM 38.6183 -80.3667 187° South 359 413 35,000 300 Level Washington Center
09:26AM 38.5219 -80.3792 186° South 359 413 35,600 780 Climbing Washington Center
09:27AM 38.4317 -80.3919 186° South 347 399 36,600 960 Climbing Washington Center
09:28AM 38.3436 -80.4047 186° South 335 386 37,600 960 Climbing Washington Center
09:29AM 38.2639 -80.4156 186° South 327 376 38,600 900 Climbing Washington Center
09:30AM 38.1781 -80.4258 185° South 322 371 39,500 660 Climbing Washington Center
09:31AM 38.0942 -80.4389 187° South 317 365 40,000 240 Climbing Washington Center
09:32AM 37.9933 -80.4533 186° South 323 372 40,000  Level Washington Center
09:33AM 37.8989 -80.4658 186° South 336 387 40,000  Level Washington Center
09:34AM 37.8025 -80.4778 186° South 347 399 40,000  Level Washington Center
09:35AM 37.7061 -80.4925 187° South 353 406 40,000  Level Washington Center
09:37AM 37.5256 -80.5144 186° South 351 404 40,000  Level Atlanta Center
09:38AM 37.4281 -80.5294 187° South 351 404 40,000  Level Atlanta Center
09:39AM 37.3306 -80.5417 186° South 351 404 40,000  Level Atlanta Center
09:40AM 37.2328 -80.5536 186° South 351 404 40,000  Level Atlanta Center
09:41AM 37.1456 -80.5681 188° South 351 404 40,000  Level Atlanta Center
09:42AM 37.0481 -80.5775 184° South 351 404 40,000  Level Atlanta Center
09:43AM 36.9503 -80.5922 187° South 351 404 40,000  Level Atlanta Center
09:44AM 36.8422 -80.6047 185° South 351 404 40,000  Level Atlanta Center
09:45AM 36.7486 -80.6139 184° South 351 404 40,000  Level Atlanta Center
09:46AM 36.6511 -80.6283 187° South 346 398 40,000  Level Atlanta Center
09:47AM 36.5661 -80.6422 187° South 351 404 40,000  Level Atlanta Center
09:48AM 36.4664 -80.6544 186° South 346 398 40,000  Level Atlanta Center
09:49AM 36.3706 -80.6661 186° South 346 398 40,000  Level Atlanta Center
09:50AM 36.2731 -80.6806 187° South 351 404 40,000  Level Atlanta Center
09:51AM 36.1753 -80.6922 186° South 351 404 40,000  Level Atlanta Center
09:52AM 36.0775 -80.7042 186° South 356 410 40,000  Level Atlanta Center
09:53AM 35.9778 -80.7183 187° South 356 410 40,000  Level Atlanta Center
09:54AM 35.8761 -80.7328 187° South 350 403 40,000  Level Atlanta Center
09:55AM 35.7783 -80.7419 184° South 350 403 40,000  Level Atlanta Center
09:56AM 35.6806 -80.7536 186° South 350 403 40,000  Level Atlanta Center
09:57AM 35.5808 -80.7678 187° South 360 414 40,000  Level Atlanta Center
09:58AM 35.4789 -80.7794 185° South 366 421 40,000  Level Atlanta Center
09:59AM 35.3792 -80.7936 187° South 366 421 40,000  Level Atlanta Center
10:00AM 35.2794 -80.8078 187° South 366 421 40,000  Level Atlanta Center
10:01AM 35.1919 -80.8211 187° South 366 421 40,000  Level Atlanta Center
10:03AM 34.9964 -80.8450 186° South 351 404 40,000  Level Jacksonville Center
10:04AM 34.8861 -80.8603 186° South 351 404 40,000  Level Jacksonville Center
10:05AM 34.7842 -80.8756 187° South 362 417 40,000  Level Jacksonville Center
10:06AM 34.6842 -80.8853 185° South 369 425 40,000  Level Jacksonville Center
10:07AM 34.5803 -80.9031 188° South 369 425 40,000  Level Jacksonville Center
10:08AM 34.4803 -80.9128 185° South 369 425 40,000  Level Jacksonville Center
10:09AM 34.3783 -80.9303 188° South 369 425 40,000  Level Jacksonville Center
10:10AM 34.3011 -80.9369 184° South 369 425 40,000  Level Jacksonville Center
10:11AM 34.1844 -80.9497 185° South 359 413 40,000  Level Jacksonville Center
10:12AM 34.0867 -80.9644 187° South 359 413 40,000  Level Jacksonville Center
10:13AM 33.9889 -80.9767 186° South 364 419 40,000  Level Jacksonville Center
10:14AM 33.8867 -80.9889 186° South 364 419 40,000  Level Jacksonville Center
10:15AM 33.7847 -81.0036 187° South 369 425 40,000  Level Jacksonville Center
10:16AM 33.6847 -81.0156 186° South 369 425 40,000  Level Jacksonville Center
10:17AM 33.5892 -81.0500 197° South 369 425 40,000 -540 Level Jacksonville Center
10:18AM 33.4917 -81.0944 201° Southwest 369 425 39,000 -1,320 Descending Jacksonville Center
10:19AM 33.3942 -81.1361 200° South 376 433 37,500 -1,500 Descending Jacksonville Center
10:20AM 33.3050 -81.1753 200° South 381 438 36,000 -1,380 Descending Jacksonville Center
10:21AM 33.2097 -81.2167 200° South 381 438 34,800 -1,020 Descending Jacksonville Center
10:22AM 33.1119 -81.2583 200° South 381 438 34,000 -420 Descending Jacksonville Center
10:23AM 33.0125 -81.2997 199° South 381 438 34,000  Level Jacksonville Center
10:24AM 32.9128 -81.3461 201° Southwest 387 445 34,000 -540 Level Jacksonville Center
10:25AM 32.8197 -81.4069 209° Southwest 387 445 33,000 -540 Descending Jacksonville Center
10:26AM 32.7453 -81.4897 223° Southwest 373 429 33,000 -900 Level Jacksonville Center
10:27AM 32.6775 -81.5794 228° Southwest 373 429 31,300 -1,500 Descending Jacksonville Center
10:28AM 32.6011 -81.6769 227° Southwest 373 429 30,000 -1,440 Descending Jacksonville Center
10:29AM 32.5097 -81.7100 197° South 341 392 28,500 -1,800 Descending Jacksonville Center
10:30AM 32.4219 -81.7186 185° South 348 400 26,400 -2,280 Descending Jacksonville Center
10:31AM 32.3133 -81.6981 171° South 358 412 24,000 -2,280 Descending Jacksonville Center
10:32AM 32.2317 -81.6669 162° South 353 406 21,900 -2,280 Descending Jacksonville Center
10:33AM 32.1433 -81.5969 146° Southeast 343 395 19,500 -2,160 Descending Jacksonville Center
10:34AM 32.0922 -81.5069 124° Southeast 325 374 17,700 -1,980 Descending Jacksonville Center
10:35AM 32.0536 -81.4242 119° Southeast 319 367 15,600 -2,160 Descending Jacksonville Center
10:36AM 32.0086 -81.3344 121° Southeast 325 374 13,400 -2,220 Descending Jacksonville Center
10:37AM 31.9272 -81.3308 178° South 264 304 11,200 -1,200 Descending Jacksonville Center
10:38AM 31.8481 -81.3444 188° South 256 295 11,000 -120 Descending Jacksonville Center
10:39AM 31.7814 -81.3625 193° South 250 288 11,000  Level Jacksonville Center
10:40AM 31.7211 -81.3686 185° South 245 282 11,000 -720 Level Jacksonville Center
10:41AM 31.6458 -81.3600 174° South 245 282 9,600 -2,160 Descending Jacksonville Center
10:42AM 31.5744 -81.3367 164° South 257 296 6,700 -2,700 Descending Jacksonville Center
10:43AM 31.5117 -81.3183 166° South 265 305 4,300 -1,620 Descending Jacksonville Center
10:44AM 31.4467 -81.3072 172° South 253 291 3,500 -1,200 Descending Jacksonville Center
10:45AM 31.3756 -81.2914 169° South 241 277 2,000 -780 Descending Jacksonville Center
10:46AM 31.3169 -81.2803 171° South 225 259 2,000 -240 Level Jacksonville Center
10:47AM 31.2692 -81.2933 193° South 196 226 1,600 -240 Descending Jacksonville Center
10:48AM 31.2381 -81.3206 217° Southwest 160 184 1,600 -300 Level Jacksonville Center
10:49AM 31.2031 -81.3528 218° Southwest 147 169 1,100 -540 Descending Jacksonville Center